sensor_id;sensor_type;location;lat;lon;timestamp;temperature;humidity
3690;DHT22;1861;50.240;8.596;2023-11-21T00:00:07;11.50;99.90
3690;DHT22;1861;50.240;8.596;2023-11-21T00:02:39;11.40;99.90
3690;DHT22;1861;50.240;8.596;2023-11-21T00:05:08;11.40;99.90
3690;DHT22;1861;50.240;8.596;2023-11-21T00:07:37;11.40;99.90
3690;DHT22;1861;50.240;8.596;2023-11-21T00:10:06;11.40;99.90
3690;DHT22;1861;50.240;8.596;2023-11-21T00:12:37;11.50;99.90
3690;DHT22;1861;50.240;8.596;2023-11-21T00:15:06;11.40;99.90
3690;DHT22;1861;50.240;8.596;2023-11-21T00:17:36;11.40;99.90
3690;DHT22;1861;50.240;8.596;2023-11-21T00:20:06;11.40;99.90
3690;DHT22;1861;50.240;8.596;2023-11-21T00:22:34;11.40;99.90
3690;DHT22;1861;50.240;8.596;2023-11-21T00:25:04;11.40;99.90
3690;DHT22;1861;50.240;8.596;2023-11-21T00:27:32;11.40;99.90
3690;DHT22;1861;50.240;8.596;2023-11-21T00:30:01;11.40;99.90
3690;DHT22;1861;50.240;8.596;2023-11-21T00:32:31;11.40;99.90
3690;DHT22;1861;50.240;8.596;2023-11-21T00:35:00;11.40;99.90
3690;DHT22;1861;50.240;8.596;2023-11-21T00:37:28;11.40;99.90
3690;DHT22;1861;50.240;8.596;2023-11-21T00:39:58;11.40;99.90
3690;DHT22;1861;50.240;8.596;2023-11-21T00:42:27;11.40;99.90
3690;DHT22;1861;50.240;8.596;2023-11-21T00:44:55;11.40;99.90
3690;DHT22;1861;50.240;8.596;2023-11-21T00:47:25;11.40;99.90
3690;DHT22;1861;50.240;8.596;2023-11-21T00:49:53;11.40;99.90
3690;DHT22;1861;50.240;8.596;2023-11-21T00:52:21;11.30;99.90
3690;DHT22;1861;50.240;8.596;2023-11-21T00:54:50;11.40;99.90
3690;DHT22;1861;50.240;8.596;2023-11-21T00:57:18;11.40;99.90
3690;DHT22;1861;50.240;8.596;2023-11-21T00:59:46;11.40;99.90
3690;DHT22;1861;50.240;8.596;2023-11-21T01:02:14;11.40;99.90
3690;DHT22;1861;50.240;8.596;2023-11-21T01:04:44;11.40;99.90
3690;DHT22;1861;50.240;8.596;2023-11-21T01:07:12;11.40;99.90
3690;DHT22;1861;50.240;8.596;2023-11-21T01:09:40;11.40;99.90
3690;DHT22;1861;50.240;8.596;2023-11-21T01:12:08;11.40;99.90
3690;DHT22;1861;50.240;8.596;2023-11-21T01:14:36;11.40;99.90
3690;DHT22;1861;50.240;8.596;2023-11-21T01:17:04;11.40;99.90
3690;DHT22;1861;50.240;8.596;2023-11-21T01:19:33;11.30;99.90
3690;DHT22;1861;50.240;8.596;2023-11-21T01:22:02;11.40;99.90
3690;DHT22;1861;50.240;8.596;2023-11-21T01:24:32;11.40;99.90
3690;DHT22;1861;50.240;8.596;2023-11-21T01:27:00;11.40;99.90
3690;DHT22;1861;50.240;8.596;2023-11-21T01:29:28;11.40;99.90
3690;DHT22;1861;50.240;8.596;2023-11-21T01:31:57;11.30;99.90
3690;DHT22;1861;50.240;8.596;2023-11-21T01:34:25;11.30;99.90
3690;DHT22;1861;50.240;8.596;2023-11-21T01:36:53;11.30;99.90
3690;DHT22;1861;50.240;8.596;2023-11-21T01:39:23;11.30;99.90
3690;DHT22;1861;50.240;8.596;2023-11-21T01:41:51;11.30;99.90
3690;DHT22;1861;50.240;8.596;2023-11-21T01:44:19;11.30;99.90
3690;DHT22;1861;50.240;8.596;2023-11-21T01:46:47;11.30;99.90
3690;DHT22;1861;50.240;8.596;2023-11-21T01:49:17;11.30;99.90
3690;DHT22;1861;50.240;8.596;2023-11-21T01:51:48;11.30;99.90
3690;DHT22;1861;50.240;8.596;2023-11-21T01:54:17;11.30;99.90
3690;DHT22;1861;50.240;8.596;2023-11-21T01:56:48;11.30;99.90
3690;DHT22;1861;50.240;8.596;2023-11-21T01:59:20;11.30;99.90
3690;DHT22;1861;50.240;8.596;2023-11-21T02:01:48;11.30;99.90
3690;DHT22;1861;50.240;8.596;2023-11-21T02:04:18;11.30;99.90
3690;DHT22;1861;50.240;8.596;2023-11-21T02:06:48;11.30;99.90
3690;DHT22;1861;50.240;8.596;2023-11-21T02:09:24;11.30;99.90
3690;DHT22;1861;50.240;8.596;2023-11-21T02:11:54;11.20;99.90
3690;DHT22;1861;50.240;8.596;2023-11-21T02:14:25;11.20;99.90
3690;DHT22;1861;50.240;8.596;2023-11-21T02:16:55;11.20;99.90
3690;DHT22;1861;50.240;8.596;2023-11-21T02:19:24;11.20;99.90
3690;DHT22;1861;50.240;8.596;2023-11-21T02:21:53;11.30;99.90
3690;DHT22;1861;50.240;8.596;2023-11-21T02:24:23;11.30;99.90
3690;DHT22;1861;50.240;8.596;2023-11-21T02:26:52;11.20;99.90
3690;DHT22;1861;50.240;8.596;2023-11-21T02:29:21;11.20;99.90
3690;DHT22;1861;50.240;8.596;2023-11-21T02:31:55;11.20;99.90
3690;DHT22;1861;50.240;8.596;2023-11-21T02:34:23;11.20;99.90
3690;DHT22;1861;50.240;8.596;2023-11-21T02:36:53;11.20;99.90
3690;DHT22;1861;50.240;8.596;2023-11-21T02:39:22;11.20;99.90
3690;DHT22;1861;50.240;8.596;2023-11-21T02:41:51;11.20;99.90
3690;DHT22;1861;50.240;8.596;2023-11-21T02:44:20;11.20;99.90
3690;DHT22;1861;50.240;8.596;2023-11-21T02:46:48;11.20;99.90
3690;DHT22;1861;50.240;8.596;2023-11-21T02:49:16;11.20;99.90
3690;DHT22;1861;50.240;8.596;2023-11-21T02:51:45;11.20;99.90
3690;DHT22;1861;50.240;8.596;2023-11-21T02:54:13;11.20;99.90
3690;DHT22;1861;50.240;8.596;2023-11-21T02:56:44;11.20;99.90
3690;DHT22;1861;50.240;8.596;2023-11-21T02:59:13;11.20;99.90
3690;DHT22;1861;50.240;8.596;2023-11-21T03:01:42;11.10;99.90
3690;DHT22;1861;50.240;8.596;2023-11-21T03:04:10;11.10;99.90
3690;DHT22;1861;50.240;8.596;2023-11-21T03:06:46;11.20;99.90
3690;DHT22;1861;50.240;8.596;2023-11-21T03:09:15;11.20;99.90
3690;DHT22;1861;50.240;8.596;2023-11-21T03:11:44;11.10;99.90
3690;DHT22;1861;50.240;8.596;2023-11-21T03:14:12;11.10;99.90
3690;DHT22;1861;50.240;8.596;2023-11-21T03:16:41;11.10;99.90
3690;DHT22;1861;50.240;8.596;2023-11-21T03:19:09;11.10;99.90
3690;DHT22;1861;50.240;8.596;2023-11-21T03:21:37;11.10;99.90
3690;DHT22;1861;50.240;8.596;2023-11-21T03:24:06;11.10;99.90
3690;DHT22;1861;50.240;8.596;2023-11-21T03:26:34;11.00;99.90
3690;DHT22;1861;50.240;8.596;2023-11-21T03:29:06;11.10;99.90
3690;DHT22;1861;50.240;8.596;2023-11-21T03:31:34;11.10;99.90
3690;DHT22;1861;50.240;8.596;2023-11-21T03:34:03;11.00;99.90
3690;DHT22;1861;50.240;8.596;2023-11-21T03:36:31;11.00;99.90
3690;DHT22;1861;50.240;8.596;2023-11-21T03:38:59;11.10;99.90
3690;DHT22;1861;50.240;8.596;2023-11-21T03:41:27;11.00;99.90
3690;DHT22;1861;50.240;8.596;2023-11-21T03:43:55;11.10;99.90
3690;DHT22;1861;50.240;8.596;2023-11-21T03:46:25;11.00;99.90
3690;DHT22;1861;50.240;8.596;2023-11-21T03:48:53;11.00;99.90
3690;DHT22;1861;50.240;8.596;2023-11-21T03:51:22;11.10;99.90
3690;DHT22;1861;50.240;8.596;2023-11-21T03:53:50;11.10;99.90
3690;DHT22;1861;50.240;8.596;2023-11-21T03:56:18;11.10;99.90
3690;DHT22;1861;50.240;8.596;2023-11-21T03:58:48;11.10;99.90
3690;DHT22;1861;50.240;8.596;2023-11-21T04:01:21;11.10;99.90
3690;DHT22;1861;50.240;8.596;2023-11-21T04:03:51;11.10;99.90
3690;DHT22;1861;50.240;8.596;2023-11-21T04:06:19;11.00;99.90
3690;DHT22;1861;50.240;8.596;2023-11-21T04:08:47;11.00;99.90
3690;DHT22;1861;50.240;8.596;2023-11-21T04:11:16;11.10;99.90
3690;DHT22;1861;50.240;8.596;2023-11-21T04:13:44;11.10;99.90
3690;DHT22;1861;50.240;8.596;2023-11-21T04:16:13;11.20;99.90
3690;DHT22;1861;50.240;8.596;2023-11-21T04:18:42;11.20;99.90
3690;DHT22;1861;50.240;8.596;2023-11-21T04:21:11;11.20;99.90
3690;DHT22;1861;50.240;8.596;2023-11-21T04:23:39;11.20;99.90
3690;DHT22;1861;50.240;8.596;2023-11-21T04:26:08;11.20;99.90
3690;DHT22;1861;50.240;8.596;2023-11-21T04:28:36;11.20;99.90
3690;DHT22;1861;50.240;8.596;2023-11-21T04:31:04;11.20;99.90
3690;DHT22;1861;50.240;8.596;2023-11-21T04:33:32;11.20;99.90
3690;DHT22;1861;50.240;8.596;2023-11-21T04:36:00;11.20;99.90
3690;DHT22;1861;50.240;8.596;2023-11-21T04:38:29;11.20;99.90
3690;DHT22;1861;50.240;8.596;2023-11-21T04:40:58;11.20;99.90
3690;DHT22;1861;50.240;8.596;2023-11-21T04:43:29;11.20;99.90
3690;DHT22;1861;50.240;8.596;2023-11-21T04:45:57;11.20;99.90
3690;DHT22;1861;50.240;8.596;2023-11-21T04:48:25;11.20;99.90
3690;DHT22;1861;50.240;8.596;2023-11-21T04:50:53;11.20;99.90
3690;DHT22;1861;50.240;8.596;2023-11-21T04:53:21;11.20;99.90
3690;DHT22;1861;50.240;8.596;2023-11-21T04:55:51;11.20;99.90
3690;DHT22;1861;50.240;8.596;2023-11-21T04:58:19;11.20;99.90
3690;DHT22;1861;50.240;8.596;2023-11-21T05:00:48;11.20;99.90
3690;DHT22;1861;50.240;8.596;2023-11-21T05:03:16;11.20;99.90
3690;DHT22;1861;50.240;8.596;2023-11-21T05:05:45;11.20;99.90
3690;DHT22;1861;50.240;8.596;2023-11-21T05:08:13;11.20;99.90
3690;DHT22;1861;50.240;8.596;2023-11-21T05:10:41;11.20;99.90
3690;DHT22;1861;50.240;8.596;2023-11-21T05:13:10;11.10;99.90
3690;DHT22;1861;50.240;8.596;2023-11-21T05:15:38;11.10;99.90
3690;DHT22;1861;50.240;8.596;2023-11-21T05:18:07;11.00;99.90
3690;DHT22;1861;50.240;8.596;2023-11-21T05:20:36;11.10;99.90
3690;DHT22;1861;50.240;8.596;2023-11-21T05:23:05;11.10;99.90
3690;DHT22;1861;50.240;8.596;2023-11-21T05:25:33;11.10;99.90
3690;DHT22;1861;50.240;8.596;2023-11-21T05:28:06;11.10;99.90
3690;DHT22;1861;50.240;8.596;2023-11-21T05:30:35;11.10;99.90
3690;DHT22;1861;50.240;8.596;2023-11-21T05:33:05;11.10;99.90
3690;DHT22;1861;50.240;8.596;2023-11-21T05:35:33;11.10;99.90
3690;DHT22;1861;50.240;8.596;2023-11-21T05:38:01;11.00;99.90
3690;DHT22;1861;50.240;8.596;2023-11-21T05:40:30;11.10;99.90
3690;DHT22;1861;50.240;8.596;2023-11-21T05:42:58;11.10;99.90
3690;DHT22;1861;50.240;8.596;2023-11-21T05:45:26;11.10;99.90
3690;DHT22;1861;50.240;8.596;2023-11-21T05:47:58;11.10;99.90
3690;DHT22;1861;50.240;8.596;2023-11-21T05:50:26;11.00;99.90
3690;DHT22;1861;50.240;8.596;2023-11-21T05:52:55;11.00;99.90
3690;DHT22;1861;50.240;8.596;2023-11-21T05:55:24;11.00;99.90
3690;DHT22;1861;50.240;8.596;2023-11-21T05:57:53;11.10;99.90
3690;DHT22;1861;50.240;8.596;2023-11-21T06:00:21;11.10;99.90
3690;DHT22;1861;50.240;8.596;2023-11-21T06:02:50;11.10;99.90
3690;DHT22;1861;50.240;8.596;2023-11-21T06:05:23;11.10;99.90
3690;DHT22;1861;50.240;8.596;2023-11-21T06:07:53;11.10;99.90
3690;DHT22;1861;50.240;8.596;2023-11-21T06:10:22;11.10;99.90
3690;DHT22;1861;50.240;8.596;2023-11-21T06:12:51;11.10;99.90
3690;DHT22;1861;50.240;8.596;2023-11-21T06:15:20;11.10;99.90
3690;DHT22;1861;50.240;8.596;2023-11-21T06:17:52;11.10;99.90
3690;DHT22;1861;50.240;8.596;2023-11-21T06:20:22;11.20;99.90
3690;DHT22;1861;50.240;8.596;2023-11-21T06:22:50;11.10;99.90
3690;DHT22;1861;50.240;8.596;2023-11-21T06:25:19;11.20;99.90
3690;DHT22;1861;50.240;8.596;2023-11-21T06:27:48;11.10;99.90
3690;DHT22;1861;50.240;8.596;2023-11-21T06:30:17;11.20;99.90
3690;DHT22;1861;50.240;8.596;2023-11-21T06:32:47;11.10;99.90
3690;DHT22;1861;50.240;8.596;2023-11-21T06:35:15;11.10;99.90
3690;DHT22;1861;50.240;8.596;2023-11-21T06:37:45;11.10;99.90
3690;DHT22;1861;50.240;8.596;2023-11-21T06:40:17;11.20;99.90
3690;DHT22;1861;50.240;8.596;2023-11-21T06:42:47;11.10;99.90
3690;DHT22;1861;50.240;8.596;2023-11-21T06:45:16;11.20;99.90
3690;DHT22;1861;50.240;8.596;2023-11-21T06:47:45;11.10;99.90
3690;DHT22;1861;50.240;8.596;2023-11-21T06:50:13;11.20;99.90
3690;DHT22;1861;50.240;8.596;2023-11-21T06:52:42;11.10;99.90
3690;DHT22;1861;50.240;8.596;2023-11-21T06:55:12;11.10;99.90
3690;DHT22;1861;50.240;8.596;2023-11-21T06:57:40;11.10;99.90
3690;DHT22;1861;50.240;8.596;2023-11-21T07:00:09;11.10;99.90
3690;DHT22;1861;50.240;8.596;2023-11-21T07:02:38;11.10;99.90
3690;DHT22;1861;50.240;8.596;2023-11-21T07:05:07;11.10;99.90
3690;DHT22;1861;50.240;8.596;2023-11-21T07:07:35;11.00;99.90
3690;DHT22;1861;50.240;8.596;2023-11-21T07:10:05;11.00;99.90
3690;DHT22;1861;50.240;8.596;2023-11-21T07:12:34;11.10;99.90
3690;DHT22;1861;50.240;8.596;2023-11-21T07:15:03;11.10;99.90
3690;DHT22;1861;50.240;8.596;2023-11-21T07:17:36;11.10;99.90
3690;DHT22;1861;50.240;8.596;2023-11-21T07:20:08;11.10;99.90
3690;DHT22;1861;50.240;8.596;2023-11-21T07:22:36;11.10;99.90
3690;DHT22;1861;50.240;8.596;2023-11-21T07:25:05;11.10;99.90
3690;DHT22;1861;50.240;8.596;2023-11-21T07:27:35;11.10;99.90
3690;DHT22;1861;50.240;8.596;2023-11-21T07:30:05;11.10;99.90
3690;DHT22;1861;50.240;8.596;2023-11-21T07:32:35;11.10;99.90
3690;DHT22;1861;50.240;8.596;2023-11-21T07:35:04;11.20;99.90
3690;DHT22;1861;50.240;8.596;2023-11-21T07:37:35;11.10;99.90
3690;DHT22;1861;50.240;8.596;2023-11-21T07:40:03;11.10;99.90
3690;DHT22;1861;50.240;8.596;2023-11-21T07:42:32;11.20;99.90
3690;DHT22;1861;50.240;8.596;2023-11-21T07:45:01;11.10;99.90
3690;DHT22;1861;50.240;8.596;2023-11-21T07:47:29;11.10;99.90
3690;DHT22;1861;50.240;8.596;2023-11-21T07:50:02;11.20;99.90
3690;DHT22;1861;50.240;8.596;2023-11-21T07:52:31;11.10;99.90
3690;DHT22;1861;50.240;8.596;2023-11-21T07:54:59;11.20;99.90
3690;DHT22;1861;50.240;8.596;2023-11-21T07:57:28;11.20;99.90
3690;DHT22;1861;50.240;8.596;2023-11-21T07:59:56;11.20;99.90
3690;DHT22;1861;50.240;8.596;2023-11-21T08:02:26;11.20;99.90
3690;DHT22;1861;50.240;8.596;2023-11-21T08:04:54;11.20;99.90
3690;DHT22;1861;50.240;8.596;2023-11-21T08:07:24;11.20;99.90
3690;DHT22;1861;50.240;8.596;2023-11-21T08:09:52;11.20;99.90
3690;DHT22;1861;50.240;8.596;2023-11-21T08:12:20;11.20;99.90
3690;DHT22;1861;50.240;8.596;2023-11-21T08:14:49;11.20;99.90
3690;DHT22;1861;50.240;8.596;2023-11-21T08:17:17;11.10;99.90
3690;DHT22;1861;50.240;8.596;2023-11-21T08:19:48;11.20;99.90
3690;DHT22;1861;50.240;8.596;2023-11-21T08:22:18;11.10;99.90
3690;DHT22;1861;50.240;8.596;2023-11-21T08:24:46;11.30;99.90
3690;DHT22;1861;50.240;8.596;2023-11-21T08:27:14;11.20;99.90
3690;DHT22;1861;50.240;8.596;2023-11-21T08:29:43;11.20;99.90
3690;DHT22;1861;50.240;8.596;2023-11-21T08:32:11;11.20;99.90
3690;DHT22;1861;50.240;8.596;2023-11-21T08:34:39;11.20;99.90
3690;DHT22;1861;50.240;8.596;2023-11-21T08:37:11;11.20;99.90
3690;DHT22;1861;50.240;8.596;2023-11-21T08:39:43;11.20;99.90
3690;DHT22;1861;50.240;8.596;2023-11-21T08:42:11;11.20;99.90
3690;DHT22;1861;50.240;8.596;2023-11-21T08:44:39;11.30;99.90
3690;DHT22;1861;50.240;8.596;2023-11-21T08:47:08;11.30;99.90
3690;DHT22;1861;50.240;8.596;2023-11-21T08:49:36;11.30;99.90
3690;DHT22;1861;50.240;8.596;2023-11-21T08:52:05;11.30;99.90
3690;DHT22;1861;50.240;8.596;2023-11-21T08:54:34;11.30;99.90
3690;DHT22;1861;50.240;8.596;2023-11-21T08:57:03;11.30;99.90
3690;DHT22;1861;50.240;8.596;2023-11-21T08:59:32;11.30;99.90
3690;DHT22;1861;50.240;8.596;2023-11-21T09:02:00;11.30;99.90
3690;DHT22;1861;50.240;8.596;2023-11-21T09:04:28;11.40;99.90
3690;DHT22;1861;50.240;8.596;2023-11-21T09:06:56;11.40;99.90
3690;DHT22;1861;50.240;8.596;2023-11-21T09:09:26;11.40;99.90
3690;DHT22;1861;50.240;8.596;2023-11-21T09:11:56;11.40;99.90
3690;DHT22;1861;50.240;8.596;2023-11-21T09:14:27;11.40;99.90
3690;DHT22;1861;50.240;8.596;2023-11-21T09:16:55;11.40;99.90
3690;DHT22;1861;50.240;8.596;2023-11-21T09:19:24;11.40;99.90
3690;DHT22;1861;50.240;8.596;2023-11-21T09:21:52;11.50;99.90
3690;DHT22;1861;50.240;8.596;2023-11-21T09:24:21;11.60;99.90
3690;DHT22;1861;50.240;8.596;2023-11-21T09:26:49;11.80;99.90
3690;DHT22;1861;50.240;8.596;2023-11-21T09:29:18;11.80;99.90
3690;DHT22;1861;50.240;8.596;2023-11-21T09:31:46;11.90;99.90
3690;DHT22;1861;50.240;8.596;2023-11-21T09:34:14;12.00;99.90
3690;DHT22;1861;50.240;8.596;2023-11-21T09:36:44;12.00;99.90
3690;DHT22;1861;50.240;8.596;2023-11-21T09:39:13;12.00;99.90
3690;DHT22;1861;50.240;8.596;2023-11-21T09:41:44;12.00;99.90
3690;DHT22;1861;50.240;8.596;2023-11-21T09:44:20;12.00;99.90
3690;DHT22;1861;50.240;8.596;2023-11-21T09:46:52;12.10;99.90
3690;DHT22;1861;50.240;8.596;2023-11-21T09:49:23;12.20;99.90
3690;DHT22;1861;50.240;8.596;2023-11-21T09:51:55;12.30;99.90
3690;DHT22;1861;50.240;8.596;2023-11-21T09:54:24;12.20;99.90
3690;DHT22;1861;50.240;8.596;2023-11-21T09:56:53;12.20;99.90
3690;DHT22;1861;50.240;8.596;2023-11-21T09:59:24;12.20;99.90
3690;DHT22;1861;50.240;8.596;2023-11-21T10:01:52;12.10;99.90
3690;DHT22;1861;50.240;8.596;2023-11-21T10:04:20;12.10;99.90
3690;DHT22;1861;50.240;8.596;2023-11-21T10:06:49;12.00;99.90
3690;DHT22;1861;50.240;8.596;2023-11-21T10:09:18;12.00;99.90
3690;DHT22;1861;50.240;8.596;2023-11-21T10:11:49;12.00;99.90
3690;DHT22;1861;50.240;8.596;2023-11-21T10:14:19;11.90;99.90
3690;DHT22;1861;50.240;8.596;2023-11-21T10:16:54;11.90;99.90
3690;DHT22;1861;50.240;8.596;2023-11-21T10:19:24;11.90;99.90
3690;DHT22;1861;50.240;8.596;2023-11-21T10:21:54;12.00;99.90
3690;DHT22;1861;50.240;8.596;2023-11-21T10:24:24;12.00;99.90
3690;DHT22;1861;50.240;8.596;2023-11-21T10:26:53;12.00;99.90
3690;DHT22;1861;50.240;8.596;2023-11-21T10:29:21;12.00;99.90
3690;DHT22;1861;50.240;8.596;2023-11-21T10:31:50;12.00;99.90
3690;DHT22;1861;50.240;8.596;2023-11-21T10:34:21;12.00;99.90
3690;DHT22;1861;50.240;8.596;2023-11-21T10:36:49;12.20;99.90
3690;DHT22;1861;50.240;8.596;2023-11-21T10:39:18;12.30;99.90
3690;DHT22;1861;50.240;8.596;2023-11-21T10:41:47;12.40;99.90
3690;DHT22;1861;50.240;8.596;2023-11-21T10:44:17;12.40;99.90
3690;DHT22;1861;50.240;8.596;2023-11-21T10:46:49;12.40;99.90
3690;DHT22;1861;50.240;8.596;2023-11-21T10:49:21;12.40;99.90
3690;DHT22;1861;50.240;8.596;2023-11-21T10:51:52;12.50;99.90
3690;DHT22;1861;50.240;8.596;2023-11-21T10:54:21;12.50;99.90
3690;DHT22;1861;50.240;8.596;2023-11-21T10:56:50;12.60;99.90
3690;DHT22;1861;50.240;8.596;2023-11-21T10:59:22;12.60;99.90
3690;DHT22;1861;50.240;8.596;2023-11-21T11:01:53;12.60;99.90
3690;DHT22;1861;50.240;8.596;2023-11-21T11:04:25;12.70;99.90
3690;DHT22;1861;50.240;8.596;2023-11-21T11:06:56;12.70;99.90
3690;DHT22;1861;50.240;8.596;2023-11-21T11:09:25;12.70;99.90
3690;DHT22;1861;50.240;8.596;2023-11-21T11:11:54;12.60;99.90
3690;DHT22;1861;50.240;8.596;2023-11-21T11:14:22;12.70;99.90
3690;DHT22;1861;50.240;8.596;2023-11-21T11:16:54;12.60;99.90
3690;DHT22;1861;50.240;8.596;2023-11-21T11:19:24;12.60;99.90
3690;DHT22;1861;50.240;8.596;2023-11-21T11:22:00;12.60;99.90
3690;DHT22;1861;50.240;8.596;2023-11-21T11:25:03;12.50;99.90
3690;DHT22;1861;50.240;8.596;2023-11-21T11:27:49;12.50;99.90
3690;DHT22;1861;50.240;8.596;2023-11-21T11:30:27;12.50;99.90
3690;DHT22;1861;50.240;8.596;2023-11-21T11:33:07;12.50;99.90
3690;DHT22;1861;50.240;8.596;2023-11-21T11:35:46;12.60;99.90
3690;DHT22;1861;50.240;8.596;2023-11-21T11:38:18;12.60;99.90
3690;DHT22;1861;50.240;8.596;2023-11-21T11:40:46;12.60;99.90
3690;DHT22;1861;50.240;8.596;2023-11-21T11:43:25;12.60;99.90
3690;DHT22;1861;50.240;8.596;2023-11-21T11:45:55;12.60;99.90
3690;DHT22;1861;50.240;8.596;2023-11-21T11:48:24;12.60;99.90
3690;DHT22;1861;50.240;8.596;2023-11-21T11:51:04;12.60;99.90
3690;DHT22;1861;50.240;8.596;2023-11-21T11:53:36;12.50;99.90
3690;DHT22;1861;50.240;8.596;2023-11-21T11:56:23;12.60;99.90
3690;DHT22;1861;50.240;8.596;2023-11-21T11:58:53;12.50;99.90
3690;DHT22;1861;50.240;8.596;2023-11-21T12:01:23;12.50;99.90
3690;DHT22;1861;50.240;8.596;2023-11-21T12:07:03;12.50;99.90
3690;DHT22;1861;50.240;8.596;2023-11-21T12:09:31;12.50;99.90
3690;DHT22;1861;50.240;8.596;2023-11-21T12:12:00;12.50;99.90
3690;DHT22;1861;50.240;8.596;2023-11-21T12:14:28;12.50;99.90
3690;DHT22;1861;50.240;8.596;2023-11-21T12:16:56;12.50;99.90
3690;DHT22;1861;50.240;8.596;2023-11-21T12:19:26;12.50;99.90
3690;DHT22;1861;50.240;8.596;2023-11-21T12:21:54;12.50;99.90
3690;DHT22;1861;50.240;8.596;2023-11-21T12:24:24;12.50;99.90
3690;DHT22;1861;50.240;8.596;2023-11-21T12:26:52;12.50;99.90
3690;DHT22;1861;50.240;8.596;2023-11-21T12:29:20;12.50;99.90
3690;DHT22;1861;50.240;8.596;2023-11-21T12:31:49;12.50;99.90
3690;DHT22;1861;50.240;8.596;2023-11-21T12:34:18;12.40;99.90
3690;DHT22;1861;50.240;8.596;2023-11-21T12:36:46;12.40;99.90
3690;DHT22;1861;50.240;8.596;2023-11-21T12:39:16;12.40;99.90
3690;DHT22;1861;50.240;8.596;2023-11-21T12:41:45;12.40;99.90
3690;DHT22;1861;50.240;8.596;2023-11-21T12:44:14;12.30;99.90
3690;DHT22;1861;50.240;8.596;2023-11-21T12:46:43;12.40;99.90
3690;DHT22;1861;50.240;8.596;2023-11-21T12:49:13;12.40;99.90
3690;DHT22;1861;50.240;8.596;2023-11-21T12:51:45;12.40;99.90
3690;DHT22;1861;50.240;8.596;2023-11-21T12:54:14;12.40;99.90
3690;DHT22;1861;50.240;8.596;2023-11-21T12:56:46;12.40;99.90
3690;DHT22;1861;50.240;8.596;2023-11-21T12:59:16;12.40;99.90
3690;DHT22;1861;50.240;8.596;2023-11-21T13:01:45;12.30;99.90
3690;DHT22;1861;50.240;8.596;2023-11-21T13:04:16;12.30;99.90
3690;DHT22;1861;50.240;8.596;2023-11-21T13:06:45;12.40;99.90
3690;DHT22;1861;50.240;8.596;2023-11-21T13:09:13;12.30;99.90
3690;DHT22;1861;50.240;8.596;2023-11-21T13:11:50;12.30;99.90
3690;DHT22;1861;50.240;8.596;2023-11-21T13:14:20;12.30;99.90
3690;DHT22;1861;50.240;8.596;2023-11-21T13:16:56;12.30;99.90
3690;DHT22;1861;50.240;8.596;2023-11-21T13:19:24;12.30;99.90
3690;DHT22;1861;50.240;8.596;2023-11-21T13:21:56;12.30;99.90
3690;DHT22;1861;50.240;8.596;2023-11-21T13:24:25;12.30;99.90
3690;DHT22;1861;50.240;8.596;2023-11-21T13:26:54;12.30;99.90
3690;DHT22;1861;50.240;8.596;2023-11-21T13:29:23;12.30;99.90
3690;DHT22;1861;50.240;8.596;2023-11-21T13:31:52;12.30;99.90
3690;DHT22;1861;50.240;8.596;2023-11-21T13:34:21;12.20;99.90
3690;DHT22;1861;50.240;8.596;2023-11-21T13:36:55;12.20;99.90
3690;DHT22;1861;50.240;8.596;2023-11-21T13:39:27;12.20;99.90
3690;DHT22;1861;50.240;8.596;2023-11-21T13:41:57;12.20;99.90
3690;DHT22;1861;50.240;8.596;2023-11-21T13:44:25;12.20;99.90
3690;DHT22;1861;50.240;8.596;2023-11-21T13:47:01;12.20;99.90
3690;DHT22;1861;50.240;8.596;2023-11-21T13:49:29;12.10;99.90
3690;DHT22;1861;50.240;8.596;2023-11-21T13:52:02;12.10;99.90
3690;DHT22;1861;50.240;8.596;2023-11-21T13:54:30;12.10;99.90
3690;DHT22;1861;50.240;8.596;2023-11-21T13:57:00;12.10;99.90
3690;DHT22;1861;50.240;8.596;2023-11-21T13:59:30;12.10;99.90
3690;DHT22;1861;50.240;8.596;2023-11-21T14:01:59;12.10;99.90
3690;DHT22;1861;50.240;8.596;2023-11-21T14:04:39;12.00;99.90
3690;DHT22;1861;50.240;8.596;2023-11-21T14:07:22;12.00;99.90
3690;DHT22;1861;50.240;8.596;2023-11-21T14:09:59;12.00;99.90
3690;DHT22;1861;50.240;8.596;2023-11-21T14:12:29;12.00;99.90
3690;DHT22;1861;50.240;8.596;2023-11-21T14:15:05;12.00;99.90
3690;DHT22;1861;50.240;8.596;2023-11-21T14:17:37;11.90;99.90
3690;DHT22;1861;50.240;8.596;2023-11-21T14:20:08;11.90;99.90
3690;DHT22;1861;50.240;8.596;2023-11-21T14:22:43;11.90;99.90
3690;DHT22;1861;50.240;8.596;2023-11-21T14:25:12;11.90;99.90
3690;DHT22;1861;50.240;8.596;2023-11-21T14:27:42;11.90;99.90
3690;DHT22;1861;50.240;8.596;2023-11-21T14:30:11;12.00;99.90
3690;DHT22;1861;50.240;8.596;2023-11-21T14:32:40;11.90;99.90
3690;DHT22;1861;50.240;8.596;2023-11-21T14:35:09;11.90;99.90
3690;DHT22;1861;50.240;8.596;2023-11-21T14:37:37;11.90;99.90
3690;DHT22;1861;50.240;8.596;2023-11-21T14:40:07;11.90;99.90
3690;DHT22;1861;50.240;8.596;2023-11-21T14:42:35;11.90;99.90
3690;DHT22;1861;50.240;8.596;2023-11-21T14:45:09;11.90;99.90
3690;DHT22;1861;50.240;8.596;2023-11-21T14:47:39;11.90;99.90
3690;DHT22;1861;50.240;8.596;2023-11-21T14:50:13;11.90;99.90
3690;DHT22;1861;50.240;8.596;2023-11-21T14:53:08;11.90;99.90
3690;DHT22;1861;50.240;8.596;2023-11-21T14:55:37;11.90;99.90
3690;DHT22;1861;50.240;8.596;2023-11-21T14:58:19;11.90;99.90
3690;DHT22;1861;50.240;8.596;2023-11-21T15:00:56;11.80;99.90
3690;DHT22;1861;50.240;8.596;2023-11-21T15:03:25;11.80;99.90
3690;DHT22;1861;50.240;8.596;2023-11-21T15:06:16;11.80;99.90
3690;DHT22;1861;50.240;8.596;2023-11-21T15:08:54;11.80;99.90
3690;DHT22;1861;50.240;8.596;2023-11-21T15:11:40;11.80;99.90
3690;DHT22;1861;50.240;8.596;2023-11-21T15:14:09;11.80;99.90
3690;DHT22;1861;50.240;8.596;2023-11-21T15:16:41;11.70;99.90
3690;DHT22;1861;50.240;8.596;2023-11-21T15:19:14;11.80;99.90
3690;DHT22;1861;50.240;8.596;2023-11-21T15:21:45;11.80;99.90
3690;DHT22;1861;50.240;8.596;2023-11-21T15:24:13;11.80;99.90
3690;DHT22;1861;50.240;8.596;2023-11-21T15:26:41;11.80;99.90
3690;DHT22;1861;50.240;8.596;2023-11-21T15:29:09;11.80;99.90
3690;DHT22;1861;50.240;8.596;2023-11-21T15:31:38;11.80;99.90
3690;DHT22;1861;50.240;8.596;2023-11-21T15:34:12;11.80;99.90
3690;DHT22;1861;50.240;8.596;2023-11-21T15:36:40;11.70;99.90
3690;DHT22;1861;50.240;8.596;2023-11-21T15:39:08;11.80;99.90
3690;DHT22;1861;50.240;8.596;2023-11-21T15:41:38;11.80;99.90
3690;DHT22;1861;50.240;8.596;2023-11-21T15:44:08;11.80;99.90
3690;DHT22;1861;50.240;8.596;2023-11-21T15:46:38;11.80;99.90
3690;DHT22;1861;50.240;8.596;2023-11-21T15:49:09;11.80;99.90
3690;DHT22;1861;50.240;8.596;2023-11-21T15:51:43;11.80;99.90
3690;DHT22;1861;50.240;8.596;2023-11-21T15:54:13;11.80;99.90
3690;DHT22;1861;50.240;8.596;2023-11-21T15:56:41;11.80;99.90
3690;DHT22;1861;50.240;8.596;2023-11-21T15:59:11;11.80;99.90
3690;DHT22;1861;50.240;8.596;2023-11-21T16:01:40;11.80;99.90
3690;DHT22;1861;50.240;8.596;2023-11-21T16:04:11;11.80;99.90
3690;DHT22;1861;50.240;8.596;2023-11-21T16:06:42;11.80;99.90
3690;DHT22;1861;50.240;8.596;2023-11-21T16:09:10;11.80;99.90
3690;DHT22;1861;50.240;8.596;2023-11-21T16:11:48;11.80;99.90
3690;DHT22;1861;50.240;8.596;2023-11-21T16:14:20;11.80;99.90
3690;DHT22;1861;50.240;8.596;2023-11-21T16:16:52;11.80;99.90
3690;DHT22;1861;50.240;8.596;2023-11-21T16:19:21;11.80;99.90
3690;DHT22;1861;50.240;8.596;2023-11-21T16:21:50;11.80;99.90